Time;durP1;ratioP1;P1;durP2;ratioP2;P2;SDS_P1;SDS_P2;PMS_P1;PMS_P2;Temp;Humidity;BMP_temperature;BMP_pressure;BME280_temperature;BME280_humidity;BME280_pressure;Samples;Min_cycle;Max_cycle;Signal;HPM_P1;HPM_P2
2023/08/06 00:01:12;;;;;;;;;;;17.00;84.40;;;;;;5093748;28;19919;-35
2023/08/06 00:03:38;;;;;;;;;;;17.00;83.80;;;;;;5093504;28;19919;-34
2023/08/06 00:06:06;;;;;;;;;;;17.00;83.90;;;;;;5093465;28;19927;-34
2023/08/06 00:08:32;;;;;;;;;;;17.00;83.90;;;;;;5093611;28;19916;-34
2023/08/06 00:10:57;;;;;;;;;;;17.00;83.90;;;;;;5093510;28;19984;-34
2023/08/06 00:13:23;;;;;;;;;;;17.00;83.90;;;;;;5075241;28;19919;-35
2023/08/06 00:15:48;;;;;;;;;;;17.00;83.90;;;;;;5093363;28;20348;-33
2023/08/06 00:18:13;;;;;;;;;;;17.00;83.90;;;;;;5093218;28;19951;-34
2023/08/06 00:20:40;;;;;;;;;;;17.00;83.90;;;;;;5093392;28;20368;-34
2023/08/06 00:23:06;;;;;;;;;;;17.00;83.90;;;;;;5093384;28;20009;-35
2023/08/06 00:25:31;;;;;;;;;;;17.00;83.90;;;;;;5093201;28;19913;-35
2023/08/06 00:27:56;;;;;;;;;;;17.00;83.90;;;;;;5093046;28;19912;-35
2023/08/06 00:30:22;;;;;;;;;;;17.00;83.90;;;;;;5092931;28;20345;-35
2023/08/06 00:32:47;;;;;;;;;;;17.00;83.90;;;;;;5092985;28;19916;-34
2023/08/06 00:35:13;;;;;;;;;;;16.90;84.00;;;;;;5093149;28;20284;-35
2023/08/06 00:37:39;;;;;;;;;;;16.90;84.00;;;;;;5093105;28;20368;-35
2023/08/06 00:40:05;;;;;;;;;;;16.90;84.10;;;;;;5093001;28;19916;-34
2023/08/06 00:42:30;;;;;;;;;;;16.80;84.10;;;;;;5092793;28;19916;-34
2023/08/06 00:44:56;;;;;;;;;;;16.80;84.10;;;;;;5092909;28;20333;-34
2023/08/06 00:47:21;;;;;;;;;;;16.80;84.20;;;;;;5092948;28;19912;-35
2023/08/06 00:49:47;;;;;;;;;;;16.80;84.20;;;;;;5092887;28;19922;-34
2023/08/06 00:52:13;;;;;;;;;;;16.80;84.20;;;;;;5092691;28;19916;-34
2023/08/06 00:54:39;;;;;;;;;;;16.80;84.30;;;;;;5092726;28;19912;-34
2023/08/06 00:57:05;;;;;;;;;;;16.80;84.30;;;;;;5092401;28;19923;-34
2023/08/06 00:59:31;;;;;;;;;;;16.80;84.30;;;;;;5092945;28;20003;-34
2023/08/06 01:01:57;;;;;;;;;;;16.80;84.40;;;;;;5092651;28;20012;-34
2023/08/06 01:04:22;;;;;;;;;;;16.70;84.30;;;;;;5092705;28;19912;-34
2023/08/06 01:06:49;;;;;;;;;;;16.70;84.40;;;;;;5092654;28;19961;-37
2023/08/06 01:09:33;;;;;;;;;;;16.70;84.40;;;;;;5092677;28;20426;-35
2023/08/06 01:12:18;;;;;;;;;;;16.70;84.40;;;;;;5092411;28;19923;-35
2023/08/06 01:14:43;;;;;;;;;;;16.70;84.50;;;;;;5074372;28;20398;-35
2023/08/06 01:17:09;;;;;;;;;;;16.60;84.60;;;;;;5092797;28;19912;-34
2023/08/06 01:19:35;;;;;;;;;;;16.60;84.60;;;;;;5092587;28;20374;-36
2023/08/06 01:22:00;;;;;;;;;;;16.60;84.70;;;;;;5092389;28;19938;-34
2023/08/06 01:24:26;;;;;;;;;;;16.50;84.80;;;;;;5092359;28;19912;-34
2023/08/06 01:26:58;;;;;;;;;;;16.50;84.90;;;;;;5092451;28;19912;-33
2023/08/06 01:29:53;;;;;;;;;;;16.50;85.10;;;;;;5092221;28;20447;-34
2023/08/06 01:32:19;;;;;;;;;;;16.40;85.10;;;;;;5069971;28;20302;-33
2023/08/06 01:34:46;;;;;;;;;;;16.40;85.20;;;;;;5092194;28;20276;-34
2023/08/06 01:37:12;;;;;;;;;;;16.40;85.30;;;;;;5092241;28;19979;-34
2023/08/06 01:39:39;;;;;;;;;;;16.40;85.40;;;;;;5092258;28;20315;-33
2023/08/06 01:42:06;;;;;;;;;;;16.30;85.40;;;;;;5092216;28;19916;-34
2023/08/06 01:44:31;;;;;;;;;;;16.30;85.50;;;;;;5092163;28;20061;-35
2023/08/06 01:46:57;;;;;;;;;;;16.30;85.50;;;;;;5091938;28;19947;-33
2023/08/06 01:49:22;;;;;;;;;;;16.30;85.60;;;;;;5092052;28;20017;-35
2023/08/06 01:51:48;;;;;;;;;;;16.30;85.60;;;;;;5086178;22;19925;-78
2023/08/06 01:54:13;;;;;;;;;;;16.30;85.70;;;;;;5054142;28;19916;-78
2023/08/06 01:56:39;;;;;;;;;;;16.30;85.70;;;;;;5054161;28;19913;-78
2023/08/06 01:59:04;;;;;;;;;;;16.30;85.70;;;;;;5054202;28;19912;-78
2023/08/06 02:01:30;;;;;;;;;;;16.30;85.70;;;;;;5054026;28;19939;-78
2023/08/06 02:03:55;;;;;;;;;;;16.30;85.70;;;;;;5083037;28;20430;-79
2023/08/06 02:06:21;;;;;;;;;;;16.30;86.00;;;;;;5074381;28;19991;-79
2023/08/06 02:08:46;;;;;;;;;;;16.30;85.70;;;;;;5076337;28;19942;-79
2023/08/06 02:11:12;;;;;;;;;;;16.40;85.80;;;;;;5079223;28;19946;-78
2023/08/06 02:13:37;;;;;;;;;;;16.40;85.70;;;;;;5078556;28;20356;-79
2023/08/06 02:16:03;;;;;;;;;;;16.40;85.70;;;;;;5078442;28;19912;-78
2023/08/06 02:18:28;;;;;;;;;;;16.30;85.70;;;;;;5079261;28;20010;-78
2023/08/06 02:21:00;;;;;;;;;;;16.40;85.80;;;;;;5079715;28;20329;-78
2023/08/06 02:23:26;;;;;;;;;;;16.30;85.70;;;;;;5098521;28;19912;-78
2023/08/06 02:26:01;;;;;;;;;;;16.40;85.80;;;;;;5079183;28;19912;-78
2023/08/06 02:28:28;;;;;;;;;;;16.30;85.80;;;;;;5079855;28;19935;-78
2023/08/06 02:30:53;;;;;;;;;;;16.30;85.80;;;;;;5079787;28;19912;-78
2023/08/06 02:33:18;;;;;;;;;;;16.30;85.80;;;;;;5098343;28;20435;-78
2023/08/06 02:35:44;;;;;;;;;;;16.30;85.80;;;;;;5080598;28;20429;-79
2023/08/06 02:38:10;;;;;;;;;;;16.30;85.90;;;;;;5080351;28;19912;-79
2023/08/06 02:40:38;;;;;;;;;;;16.30;85.90;;;;;;5081694;28;19912;-78
2023/08/06 02:43:04;;;;;;;;;;;16.30;85.90;;;;;;5081607;28;19920;-78
2023/08/06 02:45:29;;;;;;;;;;;16.30;85.90;;;;;;5100431;28;19912;-79
2023/08/06 02:47:55;;;;;;;;;;;16.30;85.90;;;;;;5081015;28;19916;-79
2023/08/06 02:50:20;;;;;;;;;;;16.30;85.90;;;;;;5080847;28;19919;-78
2023/08/06 02:52:46;;;;;;;;;;;16.30;85.90;;;;;;5080581;28;19951;-79
2023/08/06 02:55:11;;;;;;;;;;;16.40;85.90;;;;;;5080852;28;19924;-79
2023/08/06 02:57:37;;;;;;;;;;;16.40;85.90;;;;;;5080563;28;19918;-78
2023/08/06 03:00:02;;;;;;;;;;;16.40;85.90;;;;;;5079660;28;20012;-78
2023/08/06 03:02:28;;;;;;;;;;;16.40;85.90;;;;;;5078617;28;19916;-78
2023/08/06 03:04:53;;;;;;;;;;;16.40;85.90;;;;;;5098276;28;19970;-78
2023/08/06 03:07:19;;;;;;;;;;;16.40;86.00;;;;;;5080455;28;19916;-78
2023/08/06 03:09:44;;;;;;;;;;;16.40;86.00;;;;;;5079812;28;19911;-79
2023/08/06 03:12:10;;;;;;;;;;;16.40;86.00;;;;;;5079884;28;20390;-77
2023/08/06 03:14:35;;;;;;;;;;;16.40;86.00;;;;;;5080088;28;19919;-78
2023/08/06 03:17:01;;;;;;;;;;;16.40;86.00;;;;;;5079075;28;19923;-77
2023/08/06 03:19:26;;;;;;;;;;;16.40;86.10;;;;;;5077787;28;19935;-79
2023/08/06 03:21:52;;;;;;;;;;;16.40;86.10;;;;;;5076953;28;19916;-79
2023/08/06 03:24:17;;;;;;;;;;;16.40;86.10;;;;;;5094860;28;20342;-79
2023/08/06 03:26:43;;;;;;;;;;;16.30;86.10;;;;;;5094960;28;20426;-78
2023/08/06 03:29:08;;;;;;;;;;;16.30;86.20;;;;;;5076794;28;19918;-79
2023/08/06 03:31:34;;;;;;;;;;;16.30;86.30;;;;;;5076715;28;19916;-79
2023/08/06 03:33:59;;;;;;;;;;;16.30;86.30;;;;;;5076812;28;19919;-78
2023/08/06 03:36:25;;;;;;;;;;;16.30;86.40;;;;;;5076684;28;20003;-78
2023/08/06 03:38:51;;;;;;;;;;;16.30;86.40;;;;;;5094770;28;20007;-78
2023/08/06 03:41:16;;;;;;;;;;;16.30;86.30;;;;;;5094598;28;19916;-78
2023/08/06 03:43:41;;;;;;;;;;;16.30;86.40;;;;;;5076624;28;19961;-78
2023/08/06 03:46:07;;;;;;;;;;;16.30;86.40;;;;;;5076529;28;20402;-79
2023/08/06 03:48:32;;;;;;;;;;;16.30;86.40;;;;;;5076438;28;19965;-77
2023/08/06 03:51:00;;;;;;;;;;;16.30;86.40;;;;;;5094322;28;19981;-78
2023/08/06 03:53:26;;;;;;;;;;;16.30;86.40;;;;;;5076282;28;19912;-77
2023/08/06 03:55:51;;;;;;;;;;;16.30;86.40;;;;;;5076193;28;19912;-79
2023/08/06 03:58:17;;;;;;;;;;;16.30;86.40;;;;;;5076094;28;20329;-79
2023/08/06 04:00:42;;;;;;;;;;;16.40;86.50;;;;;;5076433;28;20413;-79
2023/08/06 04:03:08;;;;;;;;;;;16.40;86.50;;;;;;5076052;28;19916;-78
2023/08/06 04:05:33;;;;;;;;;;;16.40;86.50;;;;;;5094175;28;19919;-78
2023/08/06 04:07:59;;;;;;;;;;;16.40;86.50;;;;;;5094223;28;19958;-78
2023/08/06 04:10:25;;;;;;;;;;;16.40;86.40;;;;;;5076019;28;19918;-78
2023/08/06 04:12:50;;;;;;;;;;;16.40;86.50;;;;;;5075801;28;20333;-78
2023/08/06 04:15:16;;;;;;;;;;;16.40;86.50;;;;;;5094025;28;19957;-79
2023/08/06 04:17:41;;;;;;;;;;;16.40;86.40;;;;;;5075798;28;19935;-79
2023/08/06 04:20:07;;;;;;;;;;;16.40;86.40;;;;;;5093940;28;19961;-77
2023/08/06 04:22:33;;;;;;;;;;;16.50;86.50;;;;;;5075842;28;19919;-78
2023/08/06 04:24:58;;;;;;;;;;;16.50;86.40;;;;;;5093909;28;20041;-78
2023/08/06 04:27:24;;;;;;;;;;;16.40;86.40;;;;;;5093837;28;19938;-78
2023/08/06 04:29:49;;;;;;;;;;;16.40;86.50;;;;;;5075605;28;19919;-79
2023/08/06 04:32:15;;;;;;;;;;;16.40;86.50;;;;;;5074537;28;19970;-79
2023/08/06 04:34:40;;;;;;;;;;;16.40;86.60;;;;;;5090398;28;19916;-78
2023/08/06 04:37:06;;;;;;;;;;;16.40;86.60;;;;;;5093594;28;20006;-79
2023/08/06 04:39:31;;;;;;;;;;;16.40;86.60;;;;;;5075490;28;20310;-79
2023/08/06 04:42:00;;;;;;;;;;;16.40;86.60;;;;;;5075468;28;19912;-79
2023/08/06 04:44:25;;;;;;;;;;;16.40;86.60;;;;;;5093519;28;20003;-79
2023/08/06 04:46:51;;;;;;;;;;;16.40;86.60;;;;;;5075280;28;19955;-79
2023/08/06 04:49:17;;;;;;;;;;;16.40;86.60;;;;;;5075138;28;19912;-79
2023/08/06 04:51:42;;;;;;;;;;;16.50;86.60;;;;;;5075021;28;19927;-79
2023/08/06 04:54:08;;;;;;;;;;;16.50;86.60;;;;;;5075043;28;19912;-79
2023/08/06 04:56:33;;;;;;;;;;;16.50;86.60;;;;;;5075208;28;20011;-80
2023/08/06 04:58:59;;;;;;;;;;;16.50;86.50;;;;;;5074937;28;19916;-80
2023/08/06 05:01:24;;;;;;;;;;;16.50;86.50;;;;;;5074984;28;19944;-80
2023/08/06 05:03:50;;;;;;;;;;;16.60;86.50;;;;;;5074989;28;20033;-79
2023/08/06 05:06:15;;;;;;;;;;;16.60;86.50;;;;;;5074983;28;19912;-79
2023/08/06 05:08:41;;;;;;;;;;;16.60;86.50;;;;;;5074883;28;20003;-80
2023/08/06 05:11:06;;;;;;;;;;;16.60;86.50;;;;;;5092842;28;20007;-79
2023/08/06 05:13:32;;;;;;;;;;;16.70;86.40;;;;;;5075231;28;19919;-80
2023/08/06 05:15:57;;;;;;;;;;;16.70;86.40;;;;;;5093213;28;20289;-79
2023/08/06 05:18:23;;;;;;;;;;;16.70;86.40;;;;;;5074828;28;20014;-79
2023/08/06 05:20:49;;;;;;;;;;;16.80;86.40;;;;;;5074658;28;19912;-79
2023/08/06 05:23:14;;;;;;;;;;;16.80;86.40;;;;;;5074619;28;20003;-79
2023/08/06 05:25:40;;;;;;;;;;;16.90;86.40;;;;;;5074721;28;19919;-79
2023/08/06 05:28:06;;;;;;;;;;;16.90;86.40;;;;;;5074679;28;20299;-79
2023/08/06 05:30:31;;;;;;;;;;;16.90;86.30;;;;;;5074684;28;20383;-79
2023/08/06 05:32:57;;;;;;;;;;;16.90;86.30;;;;;;5074472;28;20007;-79
2023/08/06 05:35:22;;;;;;;;;;;17.00;86.40;;;;;;5074483;28;20022;-79
2023/08/06 05:37:48;;;;;;;;;;;17.00;86.40;;;;;;5074446;28;19944;-79
2023/08/06 05:40:14;;;;;;;;;;;17.00;86.50;;;;;;5074512;28;20054;-80
2023/08/06 05:42:39;;;;;;;;;;;17.00;86.50;;;;;;5092318;28;19968;-79
2023/08/06 05:45:05;;;;;;;;;;;17.00;86.50;;;;;;5074359;28;19919;-79
2023/08/06 05:47:31;;;;;;;;;;;17.00;86.60;;;;;;5074384;28;19913;-79
2023/08/06 05:49:56;;;;;;;;;;;17.10;86.50;;;;;;5089332;28;20436;-79
2023/08/06 05:52:22;;;;;;;;;;;17.10;86.50;;;;;;5074165;28;20356;-79
2023/08/06 05:54:47;;;;;;;;;;;17.10;86.50;;;;;;5074325;28;19912;-79
2023/08/06 05:57:13;;;;;;;;;;;17.10;86.50;;;;;;5074283;28;19938;-79
2023/08/06 05:59:40;;;;;;;;;;;17.10;86.50;;;;;;5074399;28;19912;-78
2023/08/06 06:02:05;;;;;;;;;;;17.10;86.50;;;;;;5074061;28;19916;-78
2023/08/06 06:04:31;;;;;;;;;;;17.10;86.50;;;;;;5073884;28;19962;-78
2023/08/06 06:06:56;;;;;;;;;;;17.10;86.60;;;;;;5091834;28;19916;-79
2023/08/06 06:09:22;;;;;;;;;;;17.10;86.50;;;;;;5074191;28;19912;-79
2023/08/06 06:11:49;;;;;;;;;;;17.10;86.50;;;;;;5073790;28;19916;-79
2023/08/06 06:14:15;;;;;;;;;;;17.10;86.50;;;;;;5074230;28;19951;-79
2023/08/06 06:16:40;;;;;;;;;;;17.10;86.50;;;;;;5074121;28;19962;-78
2023/08/06 06:19:05;;;;;;;;;;;17.10;86.50;;;;;;5074069;28;20354;-80
2023/08/06 06:21:31;;;;;;;;;;;17.10;86.50;;;;;;5073732;28;19912;-80
2023/08/06 06:23:57;;;;;;;;;;;17.10;86.60;;;;;;5074039;28;19912;-78
2023/08/06 06:26:22;;;;;;;;;;;17.10;86.60;;;;;;5074038;28;19912;-79
2023/08/06 06:28:48;;;;;;;;;;;17.10;86.70;;;;;;5092108;28;19912;-79
2023/08/06 06:31:13;;;;;;;;;;;17.10;86.70;;;;;;5073997;28;20368;-79
2023/08/06 06:33:39;;;;;;;;;;;17.10;86.70;;;;;;5073839;28;19912;-79
2023/08/06 06:36:04;;;;;;;;;;;17.00;86.80;;;;;;5073884;28;19921;-78
2023/08/06 06:38:30;;;;;;;;;;;17.00;86.80;;;;;;5073813;28;19919;-78
2023/08/06 06:40:56;;;;;;;;;;;17.00;86.80;;;;;;5091988;28;20003;-79
2023/08/06 06:43:22;;;;;;;;;;;17.00;86.80;;;;;;5091954;28;19934;-78
2023/08/06 06:45:52;;;;;;;;;;;17.00;86.80;;;;;;5074014;28;19912;-79
2023/08/06 06:48:17;;;;;;;;;;;17.10;86.80;;;;;;5092015;28;19949;-78
2023/08/06 06:50:43;;;;;;;;;;;17.10;86.70;;;;;;5091864;28;19916;-78
2023/08/06 06:53:08;;;;;;;;;;;17.00;86.80;;;;;;5073650;28;19924;-79
2023/08/06 06:55:34;;;;;;;;;;;17.00;86.80;;;;;;5075260;28;19941;-79
2023/08/06 06:57:59;;;;;;;;;;;17.00;86.80;;;;;;5077178;28;19916;-79
2023/08/06 07:00:25;;;;;;;;;;;17.00;86.90;;;;;;5077092;28;19912;-79
2023/08/06 07:02:50;;;;;;;;;;;17.00;86.90;;;;;;5077284;28;19919;-78
2023/08/06 07:05:16;;;;;;;;;;;17.00;86.90;;;;;;5077072;28;19919;-78
2023/08/06 07:07:41;;;;;;;;;;;17.00;86.90;;;;;;5076923;28;19938;-78
2023/08/06 07:10:07;;;;;;;;;;;17.00;86.90;;;;;;5076938;28;20042;-78
2023/08/06 07:12:32;;;;;;;;;;;17.00;86.90;;;;;;5076855;28;20375;-79
2023/08/06 07:14:58;;;;;;;;;;;17.00;86.90;;;;;;5076853;28;19916;-79
2023/08/06 07:17:23;;;;;;;;;;;17.00;86.90;;;;;;5077083;28;19915;-79
2023/08/06 07:19:49;;;;;;;;;;;17.00;86.80;;;;;;5076947;28;19961;-80
2023/08/06 07:22:14;;;;;;;;;;;17.10;87.00;;;;;;5076831;28;19944;-79
2023/08/06 07:24:40;;;;;;;;;;;17.00;86.90;;;;;;5076728;28;19952;-80
2023/08/06 07:27:05;;;;;;;;;;;17.10;87.00;;;;;;5094904;28;19917;-80
2023/08/06 07:29:31;;;;;;;;;;;17.10;87.00;;;;;;5094756;28;19912;-80
2023/08/06 07:31:56;;;;;;;;;;;17.10;86.90;;;;;;5076759;28;19964;-80
2023/08/06 07:34:22;;;;;;;;;;;17.10;86.90;;;;;;5076694;28;19935;-79
2023/08/06 07:36:48;;;;;;;;;;;17.20;86.80;;;;;;5076578;28;20383;-79
2023/08/06 07:39:13;;;;;;;;;;;17.30;86.70;;;;;;5076483;28;20321;-79
2023/08/06 07:41:39;;;;;;;;;;;17.40;86.70;;;;;;5076454;28;20452;-79
2023/08/06 07:44:04;;;;;;;;;;;17.40;86.60;;;;;;5076293;28;20015;-80
2023/08/06 07:46:30;;;;;;;;;;;17.40;86.50;;;;;;5076537;28;19934;-80
2023/08/06 07:48:55;;;;;;;;;;;17.50;86.60;;;;;;5076510;28;19912;-80
2023/08/06 07:51:21;;;;;;;;;;;17.60;86.50;;;;;;5094163;28;19926;-80
2023/08/06 07:53:46;;;;;;;;;;;17.60;86.60;;;;;;5076272;28;20360;-80
2023/08/06 07:56:12;;;;;;;;;;;17.60;86.70;;;;;;5094311;28;19912;-80
2023/08/06 07:58:38;;;;;;;;;;;17.60;86.70;;;;;;5076009;28;19919;-80
2023/08/06 08:01:03;;;;;;;;;;;17.60;86.60;;;;;;5095600;28;20011;-77
2023/08/06 08:03:29;;;;;;;;;;;17.70;86.70;;;;;;5078620;28;19947;-79
2023/08/06 08:05:58;;;;;;;;;;;17.70;86.60;;;;;;5078779;28;19933;-78
2023/08/06 08:08:24;;;;;;;;;;;17.80;86.50;;;;;;5096823;28;19912;-77
2023/08/06 08:10:50;;;;;;;;;;;17.80;86.40;;;;;;5078040;28;19959;-79
2023/08/06 08:13:15;;;;;;;;;;;17.90;86.40;;;;;;5095491;28;19941;-80
2023/08/06 08:15:41;;;;;;;;;;;17.90;86.20;;;;;;5077011;28;19919;-75
2023/08/06 08:18:06;;;;;;;;;;;18.00;86.10;;;;;;5075561;28;19912;-74
2023/08/06 08:20:32;;;;;;;;;;;18.00;86.10;;;;;;5093721;28;19912;-73
2023/08/06 08:22:59;;;;;;;;;;;18.10;86.10;;;;;;5093679;28;19971;-73
2023/08/06 08:25:24;;;;;;;;;;;18.10;86.00;;;;;;5093694;28;20325;-72
2023/08/06 08:27:50;;;;;;;;;;;18.20;85.80;;;;;;5075377;28;19916;-73
2023/08/06 08:30:15;;;;;;;;;;;18.30;85.70;;;;;;5093613;28;19952;-73
2023/08/06 08:32:41;;;;;;;;;;;18.30;85.60;;;;;;5075198;28;20002;-72
2023/08/06 08:35:06;;;;;;;;;;;18.40;85.60;;;;;;5093580;28;19963;-72
2023/08/06 08:37:32;;;;;;;;;;;18.40;85.60;;;;;;5093701;28;19958;-73
2023/08/06 08:39:57;;;;;;;;;;;18.50;85.60;;;;;;5075349;28;19973;-73
2023/08/06 08:42:23;;;;;;;;;;;18.50;85.40;;;;;;5075147;28;19916;-73
2023/08/06 08:44:48;;;;;;;;;;;18.60;85.40;;;;;;5075001;28;19920;-73
2023/08/06 08:47:16;;;;;;;;;;;18.60;85.30;;;;;;5093194;28;19955;-73
2023/08/06 08:49:42;;;;;;;;;;;18.60;85.30;;;;;;5075021;28;19935;-73
2023/08/06 08:52:11;;;;;;;;;;;18.60;85.30;;;;;;5074529;28;19927;-73
2023/08/06 08:54:37;;;;;;;;;;;18.70;85.20;;;;;;5074774;28;19958;-74
2023/08/06 08:57:03;;;;;;;;;;;18.70;85.10;;;;;;5092927;28;19912;-73
2023/08/06 08:59:29;;;;;;;;;;;18.80;85.00;;;;;;5093019;28;19912;-73
2023/08/06 09:01:54;;;;;;;;;;;18.80;84.90;;;;;;5074874;28;20057;-73
2023/08/06 09:04:20;;;;;;;;;;;18.90;84.90;;;;;;5074590;28;19919;-74
2023/08/06 09:06:50;;;;;;;;;;;18.90;84.90;;;;;;5074762;28;19912;-73
2023/08/06 09:09:37;;;;;;;;;;;19.00;84.90;;;;;;5092934;28;19959;-72
2023/08/06 09:12:07;;;;;;;;;;;19.00;84.80;;;;;;5074538;28;19916;-72
2023/08/06 09:14:32;;;;;;;;;;;19.00;84.70;;;;;;5092841;28;20371;-74
2023/08/06 09:16:58;;;;;;;;;;;19.10;84.70;;;;;;5074439;28;19912;-74
2023/08/06 09:19:23;;;;;;;;;;;19.00;84.70;;;;;;5074077;28;19916;-72
2023/08/06 09:21:51;;;;;;;;;;;19.00;84.80;;;;;;5075167;28;19962;-80
2023/08/06 09:24:17;;;;;;;;;;;18.90;84.90;;;;;;5072744;28;19916;-81
2023/08/06 09:26:43;;;;;;;;;;;18.80;85.00;;;;;;5075439;28;19918;-80
2023/08/06 09:29:15;;;;;;;;;;;18.70;85.20;;;;;;5074978;28;19912;-80
2023/08/06 09:31:46;;;;;;;;;;;18.60;85.30;;;;;;5074626;28;20551;-79
2023/08/06 09:34:16;;;;;;;;;;;18.60;85.50;;;;;;5092724;28;19912;-79
2023/08/06 09:36:42;;;;;;;;;;;18.50;85.60;;;;;;5074209;28;19912;-82
2023/08/06 09:39:15;;;;;;;;;;;18.40;85.80;;;;;;5093395;28;20435;-80
2023/08/06 09:41:41;;;;;;;;;;;18.30;85.80;;;;;;5074998;28;19952;-81
2023/08/06 09:44:15;;;;;;;;;;;18.30;85.80;;;;;;5074849;28;20341;-81
2023/08/06 09:46:47;;;;;;;;;;;18.30;85.80;;;;;;5074734;28;19945;-81
2023/08/06 09:49:12;;;;;;;;;;;18.30;85.80;;;;;;5093177;28;20514;-81
2023/08/06 09:51:39;;;;;;;;;;;18.30;85.80;;;;;;5074917;28;20027;-82
2023/08/06 09:54:06;;;;;;;;;;;18.30;85.80;;;;;;5074696;28;20402;-80
2023/08/06 09:56:37;;;;;;;;;;;18.30;85.70;;;;;;5074585;28;20006;-81
2023/08/06 09:59:06;;;;;;;;;;;18.30;85.80;;;;;;5092960;28;20217;-79
2023/08/06 10:01:33;;;;;;;;;;;18.20;85.80;;;;;;5074455;28;20352;-81
2023/08/06 10:04:01;;;;;;;;;;;18.20;85.90;;;;;;5094234;28;20046;-85
2023/08/06 10:06:28;;;;;;;;;;;18.20;86.10;;;;;;5076470;28;20371;-77
2023/08/06 10:08:53;;;;;;;;;;;18.10;86.20;;;;;;5073476;28;19918;-78
2023/08/06 10:11:21;;;;;;;;;;;17.90;86.90;;;;;;5074627;28;20342;-79
2023/08/06 10:13:48;;;;;;;;;;;17.60;86.90;;;;;;5074205;28;19912;-81
2023/08/06 10:16:14;;;;;;;;;;;17.50;87.50;;;;;;5074780;28;20352;-79
2023/08/06 10:18:42;;;;;;;;;;;17.30;87.70;;;;;;5074168;28;19951;-79
2023/08/06 10:21:09;;;;;;;;;;;17.20;88.10;;;;;;5096779;28;20377;-88
2023/08/06 10:23:35;;;;;;;;;;;17.10;88.10;;;;;;5079833;28;19912;-85
2023/08/06 10:26:01;;;;;;;;;;;17.10;88.40;;;;;;5078361;28;19912;-84
2023/08/06 10:28:37;;;;;;;;;;;17.10;88.50;;;;;;5079114;28;19920;-86
2023/08/06 10:31:04;;;;;;;;;;;17.00;88.40;;;;;;5079736;28;19920;-81
2023/08/06 10:33:43;;;;;;;;;;;17.00;88.50;;;;;;5079202;28;19969;-80
2023/08/06 10:36:10;;;;;;;;;;;16.90;88.60;;;;;;5078864;28;19912;-82
2023/08/06 10:38:43;;;;;;;;;;;16.90;89.10;;;;;;5075938;28;20011;-82
2023/08/06 10:41:14;;;;;;;;;;;16.70;88.80;;;;;;5097146;28;19920;-82
2023/08/06 10:43:41;;;;;;;;;;;16.60;89.10;;;;;;5078874;28;20271;-82
2023/08/06 10:46:10;;;;;;;;;;;16.40;89.40;;;;;;5079581;28;19924;-82
2023/08/06 10:48:37;;;;;;;;;;;16.30;89.60;;;;;;5078518;28;19919;-79
2023/08/06 10:51:03;;;;;;;;;;;16.20;90.10;;;;;;5078140;28;20375;-79
2023/08/06 10:53:28;;;;;;;;;;;16.10;90.00;;;;;;5078430;28;19958;-81
2023/08/06 10:55:54;;;;;;;;;;;16.00;90.00;;;;;;5078875;28;19916;-81
2023/08/06 10:58:20;;;;;;;;;;;15.90;90.10;;;;;;5080932;28;20428;-81
2023/08/06 11:00:46;;;;;;;;;;;15.80;90.10;;;;;;5079365;28;20261;-81
2023/08/06 11:03:16;;;;;;;;;;;15.70;90.20;;;;;;5078596;28;19916;-82
2023/08/06 11:05:50;;;;;;;;;;;15.70;90.30;;;;;;5079005;28;19912;-81
2023/08/06 11:08:23;;;;;;;;;;;15.60;90.30;;;;;;5078345;28;19913;-81
2023/08/06 11:10:48;;;;;;;;;;;15.50;90.50;;;;;;5096449;28;20016;-81
2023/08/06 11:13:16;;;;;;;;;;;15.60;90.50;;;;;;5077765;28;20002;-80
2023/08/06 11:15:42;;;;;;;;;;;15.50;90.60;;;;;;5096281;28;19978;-81
2023/08/06 11:18:08;;;;;;;;;;;15.50;90.60;;;;;;5077846;28;19912;-81
2023/08/06 11:20:34;;;;;;;;;;;15.50;90.60;;;;;;5095631;28;19916;-81
2023/08/06 11:23:00;;;;;;;;;;;15.50;90.50;;;;;;5078088;28;19984;-80
2023/08/06 11:25:29;;;;;;;;;;;15.40;90.70;;;;;;5077919;28;19918;-80
2023/08/06 11:27:54;;;;;;;;;;;15.40;90.60;;;;;;5077670;28;20430;-80
2023/08/06 11:30:20;;;;;;;;;;;15.40;90.60;;;;;;5077760;28;19963;-80
2023/08/06 11:32:47;;;;;;;;;;;15.40;90.90;;;;;;5077254;28;19923;-81
2023/08/06 11:35:12;;;;;;;;;;;15.40;90.80;;;;;;5095507;28;20383;-80
2023/08/06 11:37:39;;;;;;;;;;;15.40;90.80;;;;;;5077182;28;19955;-78
2023/08/06 11:40:08;;;;;;;;;;;15.40;90.80;;;;;;5077402;28;20092;-78
2023/08/06 11:42:33;;;;;;;;;;;15.40;90.90;;;;;;5071524;28;19912;-78
2023/08/06 11:44:58;;;;;;;;;;;15.40;91.10;;;;;;5077084;28;19961;-78
2023/08/06 11:47:24;;;;;;;;;;;15.30;90.90;;;;;;5095191;28;19920;-77
2023/08/06 11:49:51;;;;;;;;;;;15.40;91.00;;;;;;5095620;28;19916;-79
2023/08/06 11:52:20;;;;;;;;;;;15.40;91.00;;;;;;5076849;28;19920;-79
2023/08/06 11:54:47;;;;;;;;;;;15.40;91.00;;;;;;5077202;28;19956;-80
2023/08/06 11:57:12;;;;;;;;;;;15.30;91.00;;;;;;5076955;28;19919;-80
2023/08/06 11:59:38;;;;;;;;;;;15.40;91.00;;;;;;5076743;28;19912;-78
2023/08/06 12:02:05;;;;;;;;;;;15.40;91.10;;;;;;5076740;28;19913;-79
2023/08/06 12:04:31;;;;;;;;;;;15.30;91.00;;;;;;5077019;28;20360;-78
2023/08/06 12:07:04;;;;;;;;;;;15.30;91.00;;;;;;5095489;28;19913;-79
2023/08/06 12:09:29;;;;;;;;;;;15.30;91.10;;;;;;5076910;28;20082;-79
2023/08/06 12:11:55;;;;;;;;;;;15.30;91.10;;;;;;5094375;28;20002;-78
2023/08/06 12:14:23;;;;;;;;;;;15.30;91.40;;;;;;5076392;28;20455;-78
2023/08/06 12:16:49;;;;;;;;;;;15.20;91.10;;;;;;5076051;28;19912;-80
2023/08/06 12:19:14;;;;;;;;;;;15.20;91.20;;;;;;5076665;28;19957;-83
2023/08/06 12:21:40;;;;;;;;;;;15.20;91.20;;;;;;5076719;28;19912;-81
2023/08/06 12:24:07;;;;;;;;;;;15.20;91.30;;;;;;5095285;28;19919;-82
2023/08/06 12:26:32;;;;;;;;;;;15.10;91.40;;;;;;5077064;28;19912;-82
2023/08/06 12:28:58;;;;;;;;;;;15.10;91.30;;;;;;5077318;28;19962;-80
2023/08/06 12:31:23;;;;;;;;;;;15.10;91.30;;;;;;5076502;28;20022;-80
2023/08/06 12:33:49;;;;;;;;;;;15.10;91.30;;;;;;5076483;28;19919;-81
2023/08/06 12:36:15;;;;;;;;;;;15.10;91.30;;;;;;5076194;28;19912;-80
2023/08/06 12:38:40;;;;;;;;;;;15.20;91.40;;;;;;5077568;28;19912;-84
2023/08/06 12:41:05;;;;;;;;;;;15.20;91.30;;;;;;5076993;28;19957;-83
2023/08/06 12:43:31;;;;;;;;;;;15.20;91.30;;;;;;5077327;28;19912;-83
2023/08/06 12:45:57;;;;;;;;;;;15.20;91.30;;;;;;5095619;28;19962;-81
2023/08/06 12:48:23;;;;;;;;;;;15.20;91.30;;;;;;5078185;28;19912;-79
2023/08/06 12:50:49;;;;;;;;;;;15.20;91.40;;;;;;5096009;28;19945;-83
2023/08/06 12:53:14;;;;;;;;;;;15.20;91.40;;;;;;5076384;28;20387;-81
2023/08/06 12:55:41;;;;;;;;;;;15.20;91.40;;;;;;5077632;28;19912;-81
2023/08/06 12:58:07;;;;;;;;;;;15.20;91.40;;;;;;5077455;28;20291;-82
2023/08/06 13:00:32;;;;;;;;;;;15.20;91.40;;;;;;5077558;28;19912;-84
2023/08/06 13:03:23;;;;;;;;;;;15.20;91.40;;;;;;5076670;28;20411;-83
2023/08/06 13:05:54;;;;;;;;;;;15.20;91.40;;;;;;5077491;28;19919;-84
2023/08/06 13:08:26;;;;;;;;;;;15.20;91.40;;;;;;5076973;28;20375;-80
2023/08/06 13:10:56;;;;;;;;;;;15.20;91.50;;;;;;5094317;28;19912;-81
2023/08/06 13:13:34;;;;;;;;;;;15.20;91.60;;;;;;5075619;28;19920;-79
2023/08/06 13:16:23;;;;;;;;;;;15.10;91.50;;;;;;5075545;28;20045;-80
2023/08/06 13:18:54;;;;;;;;;;;15.10;91.60;;;;;;5075950;28;20260;-79
2023/08/06 13:21:52;;;;;;;;;;;15.10;91.60;;;;;;5075605;28;19998;-82
2023/08/06 13:24:20;;;;;;;;;;;15.10;91.60;;;;;;5074809;28;19912;-81
2023/08/06 13:26:48;;;;;;;;;;;15.10;91.60;;;;;;5075648;28;19969;-80
2023/08/06 13:32:38;;;;;;;;;;;15.20;91.50;;;;;;5011472;28;19960;-80
2023/08/06 13:35:11;;;;;;;;;;;15.10;91.50;;;;;;4991453;28;19914;-78
2023/08/06 13:44:36;;;;;;;;;;;;;;;;;;;;;
2023/08/06 13:47:46;;;;;;;;;;;15.20;91.60;;;;;;5012065;28;20461;-82
2023/08/06 13:50:25;;;;;;;;;;;;;;;;;;;;;
2023/08/06 13:52:52;;;;;;;;;;;15.20;91.60;;;;;;5071641;28;19942;-84
2023/08/06 13:55:18;;;;;;;;;;;15.20;91.70;;;;;;5074337;28;19944;-84
2023/08/06 13:57:44;;;;;;;;;;;15.30;91.70;;;;;;5073354;28;19924;-84
2023/08/06 14:00:12;;;;;;;;;;;15.20;91.60;;;;;;5074613;28;19913;-83
2023/08/06 14:02:37;;;;;;;;;;;15.30;91.70;;;;;;5073884;28;19913;-82
2023/08/06 14:05:03;;;;;;;;;;;15.30;91.70;;;;;;5077453;28;19962;-83
2023/08/06 14:07:28;;;;;;;;;;;15.30;91.70;;;;;;5078512;28;20375;-82
2023/08/06 14:09:57;;;;;;;;;;;15.30;91.70;;;;;;5079747;28;19916;-82
2023/08/06 14:12:23;;;;;;;;;;;15.30;91.70;;;;;;5077585;28;19916;-82
2023/08/06 14:14:48;;;;;;;;;;;15.30;91.60;;;;;;5076563;28;19913;-82
2023/08/06 14:17:15;;;;;;;;;;;15.40;91.70;;;;;;5076842;28;19912;-83
2023/08/06 14:19:41;;;;;;;;;;;15.40;91.60;;;;;;5077417;28;19962;-82
2023/08/06 14:22:06;;;;;;;;;;;15.40;91.60;;;;;;5076752;28;19916;-82
2023/08/06 14:24:32;;;;;;;;;;;15.50;91.60;;;;;;5076647;28;19936;-84
2023/08/06 14:26:57;;;;;;;;;;;15.50;91.60;;;;;;5076904;28;19919;-84